sensor_id;sensor_type;location;lat;lon;timestamp;P1;durP1;ratioP1;P2;durP2;ratioP2
23498;SDS011;11926;48.120;11.562;2022-10-17T14:22:45;7.05;;;2.05;;
23498;SDS011;11926;48.120;11.562;2022-10-17T14:26:03;6.85;;;1.52;;
23498;SDS011;11926;48.120;11.562;2022-10-17T14:29:02;3.38;;;1.52;;
23498;SDS011;11926;48.120;11.562;2022-10-17T14:31:56;2.35;;;1.63;;
23498;SDS011;11926;48.120;11.562;2022-10-17T14:34:46;4.45;;;1.67;;
23498;SDS011;11926;48.120;11.562;2022-10-17T14:37:57;10.30;;;1.70;;
23498;SDS011;11926;48.120;11.562;2022-10-17T14:40:48;3.25;;;1.55;;
23498;SDS011;11926;48.120;11.562;2022-10-17T14:43:36;4.40;;;1.63;;
23498;SDS011;11926;48.120;11.562;2022-10-17T14:46:23;3.45;;;1.52;;
23498;SDS011;11926;48.120;11.562;2022-10-17T14:49:14;2.75;;;1.63;;
23498;SDS011;11926;48.120;11.562;2022-10-17T14:52:11;5.03;;;2.10;;
23498;SDS011;11926;48.120;11.562;2022-10-17T14:55:19;5.35;;;1.65;;
23498;SDS011;11926;48.120;11.562;2022-10-17T14:58:16;2.70;;;1.50;;
23498;SDS011;11926;48.120;11.562;2022-10-17T15:01:04;3.90;;;1.40;;
23498;SDS011;11926;48.120;11.562;2022-10-17T15:03:51;3.47;;;1.67;;
23498;SDS011;11926;48.120;11.562;2022-10-17T15:06:38;5.40;;;1.70;;
23498;SDS011;11926;48.120;11.562;2022-10-17T15:09:25;2.38;;;1.40;;
23498;SDS011;11926;48.120;11.562;2022-10-17T15:12:15;6.70;;;1.98;;
23498;SDS011;11926;48.120;11.562;2022-10-17T15:15:03;5.55;;;1.80;;
23498;SDS011;11926;48.120;11.562;2022-10-17T15:17:51;7.47;;;1.70;;
23498;SDS011;11926;48.120;11.562;2022-10-17T15:20:39;18.10;;;2.15;;
23498;SDS011;11926;48.120;11.562;2022-10-17T15:23:27;6.63;;;2.13;;
23498;SDS011;11926;48.120;11.562;2022-10-17T15:26:14;4.50;;;2.05;;
23498;SDS011;11926;48.120;11.562;2022-10-17T15:29:06;3.53;;;1.75;;
23498;SDS011;11926;48.120;11.562;2022-10-17T15:31:53;19.70;;;2.53;;
23498;SDS011;11926;48.120;11.562;2022-10-17T15:34:42;7.95;;;2.00;;
23498;SDS011;11926;48.120;11.562;2022-10-17T15:37:30;5.70;;;2.17;;
23498;SDS011;11926;48.120;11.562;2022-10-17T15:40:20;11.52;;;2.17;;
23498;SDS011;11926;48.120;11.562;2022-10-17T15:43:09;9.77;;;2.22;;
23498;SDS011;11926;48.120;11.562;2022-10-17T15:46:03;8.38;;;2.40;;
23498;SDS011;11926;48.120;11.562;2022-10-17T15:48:55;2.92;;;1.52;;
23498;SDS011;11926;48.120;11.562;2022-10-17T15:51:47;3.95;;;2.10;;
23498;SDS011;11926;48.120;11.562;2022-10-17T15:54:39;9.40;;;2.72;;
23498;SDS011;11926;48.120;11.562;2022-10-17T15:57:28;8.40;;;2.10;;
23498;SDS011;11926;48.120;11.562;2022-10-17T16:00:17;6.50;;;1.95;;
23498;SDS011;11926;48.120;11.562;2022-10-17T16:03:07;19.60;;;3.17;;
23498;SDS011;11926;48.120;11.562;2022-10-17T16:05:54;7.40;;;1.70;;
23498;SDS011;11926;48.120;11.562;2022-10-17T16:08:45;18.45;;;2.65;;
23498;SDS011;11926;48.120;11.562;2022-10-17T16:11:33;7.47;;;2.45;;
23498;SDS011;11926;48.120;11.562;2022-10-17T16:14:23;6.88;;;1.98;;
23498;SDS011;11926;48.120;11.562;2022-10-17T16:17:11;5.57;;;2.28;;
23498;SDS011;11926;48.120;11.562;2022-10-17T16:20:01;8.63;;;2.55;;
23498;SDS011;11926;48.120;11.562;2022-10-17T16:22:48;6.85;;;2.63;;
23498;SDS011;11926;48.120;11.562;2022-10-17T16:25:36;6.05;;;2.70;;
23498;SDS011;11926;48.120;11.562;2022-10-17T16:28:24;7.35;;;2.75;;
23498;SDS011;11926;48.120;11.562;2022-10-17T16:31:14;17.80;;;3.17;;
23498;SDS011;11926;48.120;11.562;2022-10-17T16:34:06;10.40;;;3.35;;
23498;SDS011;11926;48.120;11.562;2022-10-17T16:36:55;7.90;;;3.13;;
23498;SDS011;11926;48.120;11.562;2022-10-17T16:39:42;7.43;;;3.00;;
23498;SDS011;11926;48.120;11.562;2022-10-17T16:42:33;10.43;;;3.10;;
23498;SDS011;11926;48.120;11.562;2022-10-17T16:45:21;7.32;;;3.25;;
23498;SDS011;11926;48.120;11.562;2022-10-17T16:48:08;6.75;;;2.90;;
23498;SDS011;11926;48.120;11.562;2022-10-17T16:50:56;6.30;;;3.15;;
23498;SDS011;11926;48.120;11.562;2022-10-17T16:53:45;11.35;;;3.67;;
23498;SDS011;11926;48.120;11.562;2022-10-17T16:56:34;9.32;;;3.20;;
23498;SDS011;11926;48.120;11.562;2022-10-17T16:59:21;9.90;;;3.78;;
23498;SDS011;11926;48.120;11.562;2022-10-17T17:02:09;11.85;;;3.75;;
23498;SDS011;11926;48.120;11.562;2022-10-17T17:04:59;8.10;;;3.60;;
23498;SDS011;11926;48.120;11.562;2022-10-17T17:07:46;11.35;;;4.03;;
23498;SDS011;11926;48.120;11.562;2022-10-17T17:10:35;8.52;;;3.97;;
23498;SDS011;11926;48.120;11.562;2022-10-17T17:13:21;10.77;;;4.10;;
23498;SDS011;11926;48.120;11.562;2022-10-17T17:16:09;7.72;;;3.78;;
23498;SDS011;11926;48.120;11.562;2022-10-17T17:18:59;11.90;;;4.10;;
23498;SDS011;11926;48.120;11.562;2022-10-17T17:21:48;10.65;;;4.15;;
23498;SDS011;11926;48.120;11.562;2022-10-17T17:24:35;7.95;;;4.13;;
23498;SDS011;11926;48.120;11.562;2022-10-17T17:27:23;14.30;;;4.25;;
23498;SDS011;11926;48.120;11.562;2022-10-17T17:30:14;10.15;;;3.95;;
23498;SDS011;11926;48.120;11.562;2022-10-17T17:33:01;12.45;;;4.60;;
23498;SDS011;11926;48.120;11.562;2022-10-17T17:35:52;16.95;;;4.70;;
23498;SDS011;11926;48.120;11.562;2022-10-17T17:38:40;13.52;;;4.68;;
23498;SDS011;11926;48.120;11.562;2022-10-17T17:41:28;19.00;;;5.20;;
23498;SDS011;11926;48.120;11.562;2022-10-17T17:44:17;11.50;;;4.80;;
23498;SDS011;11926;48.120;11.562;2022-10-17T17:47:04;13.50;;;4.70;;
23498;SDS011;11926;48.120;11.562;2022-10-17T17:49:52;14.38;;;4.93;;
23498;SDS011;11926;48.120;11.562;2022-10-17T17:52:39;13.80;;;4.78;;
23498;SDS011;11926;48.120;11.562;2022-10-17T17:55:30;13.13;;;5.18;;
23498;SDS011;11926;48.120;11.562;2022-10-17T17:58:17;19.02;;;4.82;;
23498;SDS011;11926;48.120;11.562;2022-10-17T18:01:08;12.23;;;4.95;;
23498;SDS011;11926;48.120;11.562;2022-10-17T18:03:59;9.95;;;4.25;;
23498;SDS011;11926;48.120;11.562;2022-10-17T18:06:46;17.48;;;4.72;;
23498;SDS011;11926;48.120;11.562;2022-10-17T18:09:33;16.35;;;4.85;;
23498;SDS011;11926;48.120;11.562;2022-10-17T18:12:20;12.75;;;4.43;;
23498;SDS011;11926;48.120;11.562;2022-10-17T18:15:07;12.23;;;4.85;;
23498;SDS011;11926;48.120;11.562;2022-10-17T18:17:56;10.80;;;4.65;;
23498;SDS011;11926;48.120;11.562;2022-10-17T18:20:43;10.75;;;4.55;;
23498;SDS011;11926;48.120;11.562;2022-10-17T18:23:30;14.30;;;4.97;;
23498;SDS011;11926;48.120;11.562;2022-10-17T18:26:18;10.70;;;5.70;;
23498;SDS011;11926;48.120;11.562;2022-10-17T18:29:05;16.13;;;6.05;;
23498;SDS011;11926;48.120;11.562;2022-10-17T18:31:52;15.18;;;5.18;;
23498;SDS011;11926;48.120;11.562;2022-10-17T18:34:40;10.43;;;5.25;;
23498;SDS011;11926;48.120;11.562;2022-10-17T18:37:28;13.82;;;5.05;;
23498;SDS011;11926;48.120;11.562;2022-10-17T18:40:15;20.20;;;5.97;;
23498;SDS011;11926;48.120;11.562;2022-10-17T18:43:02;21.02;;;6.20;;
23498;SDS011;11926;48.120;11.562;2022-10-17T18:45:50;20.13;;;5.95;;
23498;SDS011;11926;48.120;11.562;2022-10-17T18:48:41;12.55;;;5.88;;
23498;SDS011;11926;48.120;11.562;2022-10-17T18:51:31;15.00;;;6.25;;
23498;SDS011;11926;48.120;11.562;2022-10-17T18:54:19;11.57;;;5.80;;
23498;SDS011;11926;48.120;11.562;2022-10-17T18:57:08;16.80;;;6.90;;
23498;SDS011;11926;48.120;11.562;2022-10-17T18:59:55;17.65;;;6.20;;
23498;SDS011;11926;48.120;11.562;2022-10-17T19:02:42;15.45;;;6.70;;
23498;SDS011;11926;48.120;11.562;2022-10-17T19:05:29;14.88;;;6.10;;
23498;SDS011;11926;48.120;11.562;2022-10-17T19:08:20;17.88;;;6.72;;
23498;SDS011;11926;48.120;11.562;2022-10-17T19:11:07;11.43;;;6.65;;
23498;SDS011;11926;48.120;11.562;2022-10-17T19:13:57;13.60;;;6.53;;
23498;SDS011;11926;48.120;11.562;2022-10-17T19:16:46;17.55;;;6.90;;
23498;SDS011;11926;48.120;11.562;2022-10-17T19:19:35;18.48;;;7.53;;
23498;SDS011;11926;48.120;11.562;2022-10-17T19:22:22;18.42;;;7.43;;
23498;SDS011;11926;48.120;11.562;2022-10-17T19:25:11;15.27;;;7.43;;
23498;SDS011;11926;48.120;11.562;2022-10-17T19:27:59;15.95;;;7.10;;
23498;SDS011;11926;48.120;11.562;2022-10-17T19:30:45;18.15;;;7.28;;
23498;SDS011;11926;48.120;11.562;2022-10-17T19:33:33;19.15;;;7.40;;
23498;SDS011;11926;48.120;11.562;2022-10-17T19:36:21;18.40;;;6.97;;
23498;SDS011;11926;48.120;11.562;2022-10-17T19:39:17;20.00;;;8.07;;
23498;SDS011;11926;48.120;11.562;2022-10-17T19:42:08;22.27;;;8.55;;
23498;SDS011;11926;48.120;11.562;2022-10-17T19:44:55;15.02;;;8.10;;
23498;SDS011;11926;48.120;11.562;2022-10-17T19:47:42;18.67;;;8.50;;
23498;SDS011;11926;48.120;11.562;2022-10-17T19:50:29;20.17;;;8.65;;
23498;SDS011;11926;48.120;11.562;2022-10-17T19:53:20;17.15;;;8.05;;
23498;SDS011;11926;48.120;11.562;2022-10-17T19:56:08;20.20;;;8.15;;
23498;SDS011;11926;48.120;11.562;2022-10-17T19:58:57;16.90;;;8.52;;
23498;SDS011;11926;48.120;11.562;2022-10-17T20:01:45;18.45;;;9.18;;
23498;SDS011;11926;48.120;11.562;2022-10-17T20:04:32;18.25;;;9.07;;
23498;SDS011;11926;48.120;11.562;2022-10-17T20:07:29;16.20;;;9.25;;
23498;SDS011;11926;48.120;11.562;2022-10-17T20:10:16;21.25;;;9.30;;
23498;SDS011;11926;48.120;11.562;2022-10-17T20:13:03;23.25;;;10.13;;
23498;SDS011;11926;48.120;11.562;2022-10-17T20:15:54;19.33;;;9.55;;
23498;SDS011;11926;48.120;11.562;2022-10-17T20:18:42;16.20;;;8.95;;
23498;SDS011;11926;48.120;11.562;2022-10-17T20:21:29;21.58;;;10.65;;
23498;SDS011;11926;48.120;11.562;2022-10-17T20:24:19;15.48;;;8.98;;
23498;SDS011;11926;48.120;11.562;2022-10-17T20:27:06;23.85;;;10.68;;
23498;SDS011;11926;48.120;11.562;2022-10-17T20:29:53;22.60;;;11.52;;
23498;SDS011;11926;48.120;11.562;2022-10-17T20:32:46;22.30;;;10.25;;
23498;SDS011;11926;48.120;11.562;2022-10-17T20:35:39;20.00;;;10.45;;
23498;SDS011;11926;48.120;11.562;2022-10-17T20:38:28;21.77;;;10.98;;
23498;SDS011;11926;48.120;11.562;2022-10-17T20:41:16;21.98;;;11.02;;
23498;SDS011;11926;48.120;11.562;2022-10-17T20:44:03;22.10;;;10.23;;
23498;SDS011;11926;48.120;11.562;2022-10-17T20:46:51;19.08;;;10.40;;
23498;SDS011;11926;48.120;11.562;2022-10-17T20:49:48;17.08;;;10.27;;
23498;SDS011;11926;48.120;11.562;2022-10-17T20:52:35;19.13;;;9.63;;
23498;SDS011;11926;48.120;11.562;2022-10-17T20:55:22;21.10;;;10.18;;
23498;SDS011;11926;48.120;11.562;2022-10-17T20:58:10;16.83;;;9.45;;
23498;SDS011;11926;48.120;11.562;2022-10-17T21:00:58;16.10;;;9.23;;
23498;SDS011;11926;48.120;11.562;2022-10-17T21:03:50;19.70;;;9.32;;
23498;SDS011;11926;48.120;11.562;2022-10-17T21:06:39;22.10;;;9.52;;
23498;SDS011;11926;48.120;11.562;2022-10-17T21:09:26;20.85;;;9.30;;
23498;SDS011;11926;48.120;11.562;2022-10-17T21:12:13;20.10;;;9.73;;
23498;SDS011;11926;48.120;11.562;2022-10-17T21:15:15;18.50;;;9.15;;
23498;SDS011;11926;48.120;11.562;2022-10-17T21:18:02;15.55;;;8.82;;
23498;SDS011;11926;48.120;11.562;2022-10-17T21:20:49;17.63;;;9.75;;
23498;SDS011;11926;48.120;11.562;2022-10-17T21:23:38;17.73;;;9.07;;
23498;SDS011;11926;48.120;11.562;2022-10-17T21:26:26;15.25;;;9.32;;
23498;SDS011;11926;48.120;11.562;2022-10-17T21:29:14;16.40;;;9.05;;
23498;SDS011;11926;48.120;11.562;2022-10-17T21:32:02;22.10;;;10.07;;
23498;SDS011;11926;48.120;11.562;2022-10-17T21:35:09;13.80;;;8.88;;
23498;SDS011;11926;48.120;11.562;2022-10-17T21:37:56;17.20;;;8.25;;
23498;SDS011;11926;48.120;11.562;2022-10-17T21:40:46;19.85;;;8.50;;
23498;SDS011;11926;48.120;11.562;2022-10-17T21:43:37;16.20;;;8.38;;
23498;SDS011;11926;48.120;11.562;2022-10-17T21:46:25;14.52;;;8.95;;
23498;SDS011;11926;48.120;11.562;2022-10-17T21:49:14;19.90;;;8.02;;
23498;SDS011;11926;48.120;11.562;2022-10-17T21:52:03;16.30;;;8.82;;
23498;SDS011;11926;48.120;11.562;2022-10-17T21:54:51;15.93;;;7.88;;
23498;SDS011;11926;48.120;11.562;2022-10-17T21:57:39;19.35;;;9.00;;
23498;SDS011;11926;48.120;11.562;2022-10-17T22:00:26;15.98;;;8.13;;
23498;SDS011;11926;48.120;11.562;2022-10-17T22:03:14;15.25;;;7.88;;
23498;SDS011;11926;48.120;11.562;2022-10-17T22:06:01;13.10;;;8.13;;
23498;SDS011;11926;48.120;11.562;2022-10-17T22:09:11;15.85;;;7.60;;
23498;SDS011;11926;48.120;11.562;2022-10-17T22:12:00;18.63;;;7.75;;
23498;SDS011;11926;48.120;11.562;2022-10-17T22:14:49;11.65;;;6.57;;
23498;SDS011;11926;48.120;11.562;2022-10-17T22:17:36;11.60;;;6.70;;
23498;SDS011;11926;48.120;11.562;2022-10-17T22:20:23;12.18;;;7.07;;
23498;SDS011;11926;48.120;11.562;2022-10-17T22:23:10;13.95;;;6.82;;
23498;SDS011;11926;48.120;11.562;2022-10-17T22:25:58;13.15;;;6.72;;
23498;SDS011;11926;48.120;11.562;2022-10-17T22:28:45;12.43;;;6.03;;
23498;SDS011;11926;48.120;11.562;2022-10-17T22:31:34;11.65;;;6.15;;
23498;SDS011;11926;48.120;11.562;2022-10-17T22:34:22;10.57;;;6.13;;
23498;SDS011;11926;48.120;11.562;2022-10-17T22:37:09;13.65;;;5.90;;
23498;SDS011;11926;48.120;11.562;2022-10-17T22:39:56;12.95;;;6.10;;
23498;SDS011;11926;48.120;11.562;2022-10-17T22:42:43;12.23;;;4.97;;
23498;SDS011;11926;48.120;11.562;2022-10-17T22:45:30;16.65;;;5.55;;
23498;SDS011;11926;48.120;11.562;2022-10-17T22:48:19;11.18;;;5.53;;
23498;SDS011;11926;48.120;11.562;2022-10-17T22:51:07;10.30;;;5.25;;
23498;SDS011;11926;48.120;11.562;2022-10-17T22:53:55;9.45;;;5.03;;
23498;SDS011;11926;48.120;11.562;2022-10-17T22:56:42;8.30;;;4.70;;
23498;SDS011;11926;48.120;11.562;2022-10-17T22:59:29;10.98;;;4.60;;
23498;SDS011;11926;48.120;11.562;2022-10-17T23:02:16;9.82;;;4.60;;
23498;SDS011;11926;48.120;11.562;2022-10-17T23:05:05;10.23;;;4.93;;
23498;SDS011;11926;48.120;11.562;2022-10-17T23:07:53;9.10;;;4.45;;
23498;SDS011;11926;48.120;11.562;2022-10-17T23:10:41;8.65;;;4.60;;
23498;SDS011;11926;48.120;11.562;2022-10-17T23:13:29;6.28;;;4.13;;
23498;SDS011;11926;48.120;11.562;2022-10-17T23:16:16;9.02;;;4.93;;
23498;SDS011;11926;48.120;11.562;2022-10-17T23:19:03;8.07;;;4.43;;
23498;SDS011;11926;48.120;11.562;2022-10-17T23:21:52;10.02;;;4.65;;
23498;SDS011;11926;48.120;11.562;2022-10-17T23:24:39;7.45;;;4.05;;
23498;SDS011;11926;48.120;11.562;2022-10-17T23:27:26;12.05;;;4.50;;
23498;SDS011;11926;48.120;11.562;2022-10-17T23:30:14;13.60;;;4.30;;
23498;SDS011;11926;48.120;11.562;2022-10-17T23:33:02;10.35;;;4.10;;
23498;SDS011;11926;48.120;11.562;2022-10-17T23:35:49;8.13;;;4.10;;
23498;SDS011;11926;48.120;11.562;2022-10-17T23:38:38;8.60;;;4.40;;
23498;SDS011;11926;48.120;11.562;2022-10-17T23:41:25;6.18;;;4.53;;
23498;SDS011;11926;48.120;11.562;2022-10-17T23:44:13;10.07;;;4.03;;
23498;SDS011;11926;48.120;11.562;2022-10-17T23:47:00;9.95;;;4.07;;
23498;SDS011;11926;48.120;11.562;2022-10-17T23:49:47;8.93;;;4.13;;
23498;SDS011;11926;48.120;11.562;2022-10-17T23:52:34;7.85;;;3.95;;
23498;SDS011;11926;48.120;11.562;2022-10-17T23:55:22;8.55;;;4.50;;
23498;SDS011;11926;48.120;11.562;2022-10-17T23:58:10;6.40;;;3.92;;
